CheckWX is a tool to help pilots better visualize weather data.  It is not intended as a substitute for an official pre-flight weather briefing.

01:52:47 UTC

KPGA TAF
Page Municipal Airport
Page, Arizona, USA
KPGA 182324Z 1900/1924 VRB05KT P6SM SKC

Mar-19@
00:00 UTC

Mar-19 @ 00:00 UTC

Mar-20@
00:00 UTC

Mar-20 @ 00:00 UTC

KPGA 182324Z 1900/1924 VRB05KT P6SM SKC
Wind
  • Variable at 5 KTS
Cloud Levels
  • Clear skies